createdAt,value
2023-03-14T00:02:12.994Z,98876.34
2023-03-14T00:04:39.367Z,98889.06
2023-03-14T00:07:05.694Z,98894.78
2023-03-14T00:09:32.034Z,98890.00
2023-03-14T00:11:58.773Z,98891.59
2023-03-14T00:14:25.187Z,98893.19
2023-03-14T00:16:51.606Z,98888.28
2023-03-14T00:19:17.935Z,98885.22
2023-03-14T00:21:44.353Z,98878.22
2023-03-14T00:24:10.704Z,98875.22
2023-03-14T00:26:37.166Z,98874.09
2023-03-14T00:29:03.819Z,98875.69
2023-03-14T00:31:30.327Z,98877.31
2023-03-14T00:33:56.677Z,98879.19
2023-03-14T00:36:23.514Z,98885.91
2023-03-14T00:38:51.554Z,98886.41
2023-03-14T00:41:21.381Z,98889.09
2023-03-14T00:43:47.719Z,98893.41
2023-03-14T00:46:14.216Z,98885.28
2023-03-14T00:48:40.803Z,98896.13
2023-03-14T00:51:09.311Z,98879.88
2023-03-14T00:53:39.870Z,98894.53
2023-03-14T00:56:08.895Z,98888.28
2023-03-14T00:58:35.541Z,98888.00
2023-03-14T01:01:14.939Z,98892.78
2023-03-14T01:03:41.357Z,98899.78
2023-03-14T01:06:16.424Z,98897.72
2023-03-14T01:08:43.384Z,98906.31
2023-03-14T01:11:12.952Z,98903.63
2023-03-14T01:13:40.079Z,98908.53
2023-03-14T01:16:09.655Z,98911.69
2023-03-14T01:18:36.692Z,98910.72
2023-03-14T01:21:05.470Z,98921.06
2023-03-14T01:23:31.809Z,98917.22
2023-03-14T01:25:58.176Z,98927.34
2023-03-14T01:28:24.559Z,98926.72
2023-03-14T01:30:50.921Z,98920.81
2023-03-14T01:33:17.325Z,98929.06
2023-03-14T01:35:43.726Z,98914.88
2023-03-14T01:38:10.101Z,98916.75
2023-03-14T01:40:43.343Z,98923.91
2023-03-14T01:43:19.098Z,98918.94
2023-03-14T01:46:07.214Z,98925.13
2023-03-14T01:48:45.502Z,98914.44
2023-03-14T01:51:34.914Z,98904.72
2023-03-14T01:54:20.714Z,98894.53
2023-03-14T01:56:53.723Z,98890.22
2023-03-14T01:59:20.443Z,98888.13
2023-03-14T02:01:48.867Z,98884.31
2023-03-14T02:04:17.067Z,98886.72
2023-03-14T02:06:50.822Z,98888.63
2023-03-14T02:09:17.685Z,98891.94
2023-03-14T02:11:45.463Z,98889.72
2023-03-14T02:14:21.380Z,98888.63
2023-03-14T02:16:47.983Z,98877.31
2023-03-14T02:19:17.691Z,98885.75
2023-03-14T02:22:03.013Z,98890.84
2023-03-14T02:24:54.137Z,98883.22
2023-03-14T02:27:21.593Z,98879.38
2023-03-14T02:29:59.645Z,98869.66
2023-03-14T02:32:28.036Z,98874.75
2023-03-14T02:34:58.365Z,98873.13
2023-03-14T02:37:33.911Z,98869.66
2023-03-14T02:40:00.254Z,98870.94
2023-03-14T02:42:26.607Z,98874.75
2023-03-14T02:44:56.539Z,98868.72
2023-03-14T02:47:28.568Z,98869.69
2023-03-14T02:50:02.702Z,98868.91
2023-03-14T02:52:29.328Z,98854.09
2023-03-14T02:54:55.909Z,98860.72
2023-03-14T02:57:22.293Z,98852.59
2023-03-14T02:59:48.724Z,98853.09
2023-03-14T03:02:15.109Z,98851.50
2023-03-14T03:04:41.495Z,98845.00
2023-03-14T03:07:07.859Z,98845.81
2023-03-14T03:09:34.205Z,98847.06
2023-03-14T03:12:00.558Z,98853.28
2023-03-14T03:14:27.082Z,98847.69
2023-03-14T03:16:53.472Z,98842.91
2023-03-14T03:19:19.876Z,98841.00
2023-03-14T03:21:46.235Z,98850.72
2023-03-14T03:24:12.657Z,98839.41
2023-03-14T03:26:39.262Z,98839.72
2023-03-14T03:29:05.697Z,98823.97
2023-03-14T03:31:32.059Z,98841.50
2023-03-14T03:33:58.578Z,98821.75
2023-03-14T03:36:26.735Z,98831.47
2023-03-14T03:38:53.141Z,98839.56
2023-03-14T03:41:19.475Z,98836.88
2023-03-14T03:43:45.838Z,98816.84
2023-03-14T03:46:12.241Z,98817.66
2023-03-14T03:48:38.757Z,98815.72
2023-03-14T03:51:05.617Z,98810.03
2023-03-14T03:53:33.813Z,98812.25
2023-03-14T03:56:00.619Z,98820.84
2023-03-14T03:58:26.946Z,98813.22
2023-03-14T04:00:53.304Z,98819.41
2023-03-14T04:03:19.652Z,98816.41
2023-03-14T04:05:46.115Z,98817.50
2023-03-14T04:08:12.449Z,98818.28
2023-03-14T04:10:38.798Z,98817.69
2023-03-14T04:13:05.125Z,98817.69
2023-03-14T04:15:31.480Z,98823.56
2023-03-14T04:17:59.677Z,98817.53
2023-03-14T04:20:26.052Z,98819.63
2023-03-14T04:22:52.385Z,98825.03
2023-03-14T04:25:20.934Z,98823.16
2023-03-14T04:27:48.547Z,98823.94
2023-03-14T04:30:14.957Z,98828.56
2023-03-14T04:32:41.382Z,98826.00
2023-03-14T04:35:08.159Z,98823.00
2023-03-14T04:37:34.490Z,98828.09
2023-03-14T04:40:00.859Z,98817.59
2023-03-14T04:42:27.207Z,98814.06
2023-03-14T04:44:53.586Z,98808.38
2023-03-14T04:47:19.936Z,98807.88
2023-03-14T04:49:46.284Z,98801.03
2023-03-14T04:52:12.652Z,98805.81
2023-03-14T04:54:39.013Z,98801.22
2023-03-14T04:57:05.411Z,98801.72
2023-03-14T04:59:31.742Z,98796.59
2023-03-14T05:01:58.148Z,98796.91
2023-03-14T05:04:24.540Z,98788.47
2023-03-14T05:06:50.896Z,98795.81
2023-03-14T05:09:17.254Z,98791.50
2023-03-14T05:11:44.671Z,98807.88
2023-03-14T05:14:11.030Z,98798.47
2023-03-14T05:16:37.400Z,98790.50
2023-03-14T05:19:03.903Z,98793.81
2023-03-14T05:21:30.286Z,98799.84
2023-03-14T05:23:56.672Z,98792.06
2023-03-14T05:26:23.950Z,98776.31
2023-03-14T05:28:50.278Z,98783.13
2023-03-14T05:31:16.683Z,98785.34
2023-03-14T05:33:43.024Z,98779.78
2023-03-14T05:36:09.975Z,98784.22
2023-03-14T05:38:36.351Z,98797.06
2023-03-14T05:41:02.747Z,98786.25
2023-03-14T05:43:29.143Z,98781.44
2023-03-14T05:45:55.578Z,98793.38
2023-03-14T05:48:22.785Z,98784.00
2023-03-14T05:50:49.476Z,98792.88
2023-03-14T05:53:15.810Z,98780.47
2023-03-14T05:55:42.140Z,98784.00
2023-03-14T05:58:08.475Z,98785.88
2023-03-14T06:00:34.805Z,98789.69
2023-03-14T06:03:01.236Z,98781.13
2023-03-14T06:05:27.656Z,98780.63
2023-03-14T06:07:54.034Z,98775.84
2023-03-14T06:10:20.419Z,98770.56
2023-03-14T06:12:46.779Z,98774.88
2023-03-14T06:15:13.117Z,98773.75
2023-03-14T06:17:39.973Z,98781.88
2023-03-14T06:20:06.739Z,98776.28
2023-03-14T06:22:33.144Z,98787.09
2023-03-14T06:24:59.491Z,98788.06
2023-03-14T06:27:25.825Z,98792.06
2023-03-14T06:29:52.704Z,98793.03
2023-03-14T06:32:19.307Z,98794.16
2023-03-14T06:34:45.757Z,98800.66
2023-03-14T06:37:12.293Z,98800.66
2023-03-14T06:39:39.564Z,98829.78
2023-03-14T06:42:06.379Z,98851.09
2023-03-14T06:44:32.795Z,98854.59
2023-03-14T06:46:59.282Z,98867.00
2023-03-14T06:49:25.754Z,98874.00
2023-03-14T06:51:52.147Z,98893.88
2023-03-14T06:54:18.557Z,98901.59
2023-03-14T06:56:44.882Z,98910.78
2023-03-14T06:59:11.249Z,98925.31
2023-03-14T07:01:37.653Z,98930.03
2023-03-14T07:04:04.412Z,98938.75
2023-03-14T07:06:30.829Z,98949.16
2023-03-14T07:08:58.234Z,98950.88
2023-03-14T07:11:25.388Z,98944.16
2023-03-14T07:13:51.795Z,98958.56
2023-03-14T07:16:18.379Z,98968.84
2023-03-14T07:18:44.812Z,98980.09
2023-03-14T07:21:13.161Z,98980.47
2023-03-14T07:23:40.050Z,98993.19
2023-03-14T07:26:06.868Z,99007.47
2023-03-14T07:28:33.206Z,99018.88
2023-03-14T07:30:59.886Z,99025.38
2023-03-14T07:33:26.290Z,99035.41
2023-03-14T07:35:52.709Z,99050.28
2023-03-14T07:38:21.619Z,99059.56
2023-03-14T07:40:49.175Z,99065.28
2023-03-14T07:43:15.529Z,99071.28
2023-03-14T07:45:43.255Z,99087.06
2023-03-14T07:48:09.804Z,99101.44
2023-03-14T07:50:36.160Z,99105.81
2023-03-14T07:53:02.512Z,99113.63
2023-03-14T07:55:28.852Z,99126.63
2023-03-14T07:57:55.197Z,99137.41
2023-03-14T08:00:21.914Z,99144.22
2023-03-14T08:02:48.440Z,99165.00
2023-03-14T08:05:17.035Z,99184.22
2023-03-14T08:07:43.475Z,99203.53
2023-03-14T08:10:10.551Z,99216.94
2023-03-14T08:12:37.056Z,99228.06
2023-03-14T08:15:03.602Z,99239.88
2023-03-14T08:17:29.945Z,99254.56
2023-03-14T08:19:56.337Z,99264.41
2023-03-14T08:22:25.758Z,99277.47
2023-03-14T08:24:52.103Z,99273.75
2023-03-14T08:27:18.557Z,99302.34
2023-03-14T08:29:45.947Z,99309.69
2023-03-14T08:32:12.314Z,99319.72
2023-03-14T08:34:38.742Z,99330.22
2023-03-14T08:37:10.887Z,99336.72
2023-03-14T08:39:42.772Z,99346.47
2023-03-14T08:42:09.198Z,99353.72
2023-03-14T08:44:35.579Z,99376.63
2023-03-14T08:47:02.037Z,99388.22
2023-03-14T08:49:28.541Z,99397.34
2023-03-14T08:51:54.950Z,99409.78
2023-03-14T08:54:21.281Z,99416.22
2023-03-14T08:56:47.664Z,99413.50
2023-03-14T08:59:13.994Z,99443.63
2023-03-14T09:01:40.411Z,99446.31
2023-03-14T09:04:07.790Z,99462.47
2023-03-14T09:06:34.166Z,99469.97
2023-03-14T09:09:00.550Z,99479.13
2023-03-14T09:11:26.903Z,99496.88
2023-03-14T09:13:53.393Z,99495.53
2023-03-14T09:16:19.913Z,99515.19
2023-03-14T09:18:46.504Z,99516.25
2023-03-14T09:21:12.862Z,99530.25
2023-03-14T09:23:40.832Z,99549.16
2023-03-14T09:26:07.488Z,99542.16
2023-03-14T09:28:33.950Z,99554.31
2023-03-14T09:31:07.374Z,99556.50
2023-03-14T09:33:33.723Z,99564.81
2023-03-14T09:36:01.000Z,99581.53
2023-03-14T09:38:27.798Z,99574.78
2023-03-14T09:40:55.649Z,99592.31
2023-03-14T09:43:24.163Z,99604.69
2023-03-14T09:45:52.595Z,99601.75
2023-03-14T09:48:23.142Z,99625.72
2023-03-14T09:50:53.309Z,99641.34
2023-03-14T09:53:25.881Z,99642.44
2023-03-14T09:55:53.264Z,99652.13
2023-03-14T09:58:24.718Z,99649.19
2023-03-14T10:00:55.151Z,99668.59
2023-03-14T10:03:34.193Z,99669.38
2023-03-14T10:06:00.776Z,99679.63
2023-03-14T10:08:27.411Z,99684.44
2023-03-14T10:10:54.725Z,99688.75
2023-03-14T10:13:25.401Z,99703.06
2023-03-14T10:15:59.407Z,99716.25
2023-03-14T10:18:28.734Z,99736.22
2023-03-14T10:21:29.532Z,99749.44
2023-03-14T10:24:08.749Z,99760.78
2023-03-14T10:26:35.953Z,99780.22
2023-03-14T10:29:09.911Z,99779.38
2023-03-14T10:32:02.558Z,99782.06
2023-03-14T10:34:34.684Z,99790.69
2023-03-14T10:37:22.219Z,99797.16
2023-03-14T10:39:51.880Z,99814.19
2023-03-14T10:42:32.667Z,99826.84
2023-03-14T10:45:02.830Z,99841.44
2023-03-14T10:47:30.390Z,99850.88
2023-03-14T10:49:58.256Z,99865.69
2023-03-14T10:52:31.239Z,99877.03
2023-03-14T10:55:09.728Z,99896.72
2023-03-14T10:57:40.407Z,99908.31
2023-03-14T11:00:16.183Z,99917.47
2023-03-14T11:02:59.443Z,99932.56
2023-03-14T11:06:10.607Z,99935.03
2023-03-14T11:08:53.160Z,99947.13
2023-03-14T11:11:31.154Z,99949.28
2023-03-14T11:14:37.344Z,99954.13
2023-03-14T11:17:21.920Z,99967.63
2023-03-14T11:20:05.682Z,99974.94
2023-03-14T11:22:48.437Z,99988.69
2023-03-14T11:25:46.881Z,100004.88
2023-03-14T11:28:39.550Z,100005.63
2023-03-14T11:31:17.030Z,100012.31
2023-03-14T11:34:01.997Z,100018.75
2023-03-14T11:36:34.888Z,100022.84
2023-03-14T11:39:18.279Z,100044.22
2023-03-14T11:41:54.739Z,100045.56
2023-03-14T11:44:26.840Z,100056.59
2023-03-14T11:47:07.534Z,100070.06
2023-03-14T11:49:41.178Z,100071.13
2023-03-14T11:52:14.215Z,100077.03
2023-03-14T11:55:13.976Z,100076.00
2023-03-14T11:57:41.364Z,100089.47
2023-03-14T12:00:28.735Z,100101.88
2023-03-14T12:03:32.590Z,100085.53
2023-03-14T12:06:14.574Z,100096.88
2023-03-14T12:08:46.886Z,100115.03
2023-03-14T12:11:41.094Z,100115.38
2023-03-14T12:14:34.120Z,100127.75
2023-03-14T12:17:20.993Z,100122.06
2023-03-14T12:19:48.720Z,100133.06
2023-03-14T12:22:26.050Z,100135.69
2023-03-14T12:24:57.894Z,100142.59
2023-03-14T12:27:49.122Z,100146.38
2023-03-14T12:30:34.726Z,100159.03
2023-03-14T12:33:10.443Z,100168.56
2023-03-14T12:35:57.994Z,100171.28
2023-03-14T12:39:03.699Z,100166.69
2023-03-14T12:41:39.545Z,100173.59
2023-03-14T12:44:30.509Z,100173.59
2023-03-14T12:47:21.587Z,100189.84
2023-03-14T12:49:50.635Z,100179.88
2023-03-14T12:52:28.782Z,100196.09
2023-03-14T12:55:23.811Z,100218.56
2023-03-14T12:58:04.537Z,100209.41
2023-03-14T13:00:34.947Z,100218.09
2023-03-14T13:03:19.386Z,100230.84
2023-03-14T13:05:58.794Z,100237.09
2023-03-14T13:08:40.624Z,100239.81
2023-03-14T13:11:14.023Z,100244.66
2023-03-14T13:13:50.000Z,100250.84
2023-03-14T13:16:21.819Z,100269.47
2023-03-14T13:19:04.587Z,100264.31
2023-03-14T13:21:37.945Z,100273.25
2023-03-14T13:24:08.588Z,100277.56
2023-03-14T13:26:49.257Z,100277.00
2023-03-14T13:29:23.518Z,100278.06
2023-03-14T13:31:58.581Z,100299.75
2023-03-14T13:34:30.683Z,100305.19
2023-03-14T13:36:57.308Z,100306.25
2023-03-14T13:39:29.295Z,100310.03
2023-03-14T13:42:00.931Z,100310.81
2023-03-14T13:44:37.402Z,100321.31
2023-03-14T13:47:06.602Z,100327.25
2023-03-14T13:49:36.434Z,100341.31
2023-03-14T13:52:04.358Z,100345.16
2023-03-14T13:54:32.307Z,100349.50
2023-03-14T13:57:03.562Z,100348.72
2023-03-14T13:59:32.781Z,100367.38
2023-03-14T14:02:02.042Z,100376.88
2023-03-14T14:04:30.307Z,100385.81
2023-03-14T14:06:59.586Z,100387.19
2023-03-14T14:09:36.770Z,100402.88
2023-03-14T14:12:20.933Z,100403.41
2023-03-14T14:14:56.951Z,100415.06
2023-03-14T14:17:32.044Z,100428.03
2023-03-14T14:20:01.037Z,100438.84
2023-03-14T14:22:28.376Z,100441.53
2023-03-14T14:24:55.286Z,100448.00
2023-03-14T14:27:37.235Z,100450.59
2023-03-14T14:30:07.447Z,100456.50
2023-03-14T14:32:38.733Z,100470.53
2023-03-14T14:35:07.067Z,100472.94
2023-03-14T14:37:41.287Z,100477.50
2023-03-14T14:40:17.111Z,100476.41
2023-03-14T14:42:43.527Z,100493.69
2023-03-14T14:45:18.066Z,100491.47
2023-03-14T14:48:05.038Z,100499.59
2023-03-14T14:50:34.714Z,100505.50
2023-03-14T14:53:20.772Z,100509.03
2023-03-14T14:55:53.828Z,100514.66
2023-03-14T14:58:29.719Z,100519.50
2023-03-14T15:00:57.728Z,100525.97
2023-03-14T15:03:28.904Z,100530.56
2023-03-14T15:05:56.420Z,100542.16
2023-03-14T15:08:24.754Z,100550.78
2023-03-14T15:10:51.181Z,100549.41
2023-03-14T15:13:17.532Z,100552.94
2023-03-14T15:15:44.558Z,100558.00
2023-03-14T15:18:15.150Z,100566.91
2023-03-14T15:20:41.956Z,100571.47
2023-03-14T15:23:17.345Z,100566.59
2023-03-14T15:25:55.051Z,100575.25
2023-03-14T15:28:25.253Z,100580.34
2023-03-14T15:30:53.946Z,100598.69
2023-03-14T15:33:21.549Z,100594.88
2023-03-14T15:35:48.710Z,100605.16
2023-03-14T15:38:18.461Z,100603.81
2023-03-14T15:40:44.816Z,100594.91
2023-03-14T15:43:11.226Z,100613.22
2023-03-14T15:45:37.600Z,100630.47
2023-03-14T15:48:04.662Z,100635.25
2023-03-14T15:50:31.211Z,100639.81
2023-03-14T15:52:57.990Z,100639.03
2023-03-14T15:55:24.418Z,100648.19
2023-03-14T15:57:51.039Z,100648.69
2023-03-14T16:00:19.573Z,100656.78
2023-03-14T16:02:46.071Z,100654.59
2023-03-14T16:05:13.551Z,100661.00
2023-03-14T16:07:40.913Z,100665.78
2023-03-14T16:10:09.198Z,100665.16
2023-03-14T16:12:35.659Z,100673.75
2023-03-14T16:15:02.111Z,100676.66
2023-03-14T16:17:28.567Z,100677.44
2023-03-14T16:19:54.906Z,100680.97
2023-03-14T16:22:21.552Z,100686.88
2023-03-14T16:24:47.957Z,100693.63
2023-03-14T16:27:14.399Z,100702.00
2023-03-14T16:29:42.219Z,100699.53
2023-03-14T16:32:08.824Z,100703.28
2023-03-14T16:34:38.078Z,100716.19
2023-03-14T16:37:29.631Z,100719.16
2023-03-14T16:43:14.822Z,100733.38
2023-03-14T16:45:50.695Z,100739.84
2023-03-14T16:48:17.182Z,100744.66
2023-03-14T16:50:43.836Z,100747.63
2023-03-14T16:53:14.275Z,100753.81
2023-03-14T16:55:43.000Z,100764.84
2023-03-14T16:58:21.273Z,100771.31
2023-03-14T17:00:48.535Z,100768.06
2023-03-14T17:03:16.069Z,100780.13
2023-03-14T17:05:48.464Z,100780.97
2023-03-14T17:08:16.831Z,100786.00
2023-03-14T17:10:44.436Z,100789.81
2023-03-14T17:13:29.310Z,100797.88
2023-03-14T17:15:57.575Z,100801.06
2023-03-14T17:18:25.512Z,100801.56
2023-03-14T17:20:52.901Z,100800.06
2023-03-14T17:23:20.128Z,100804.59
2023-03-14T17:25:47.742Z,100811.03
2023-03-14T17:28:14.110Z,100809.88
2023-03-14T17:30:40.524Z,100827.03
2023-03-14T17:33:06.897Z,100826.59
2023-03-14T17:35:33.438Z,100829.44
2023-03-14T17:38:00.116Z,100838.59
2023-03-14T17:40:26.600Z,100835.00
2023-03-14T17:42:53.049Z,100837.25
2023-03-14T17:45:19.658Z,100847.91
2023-03-14T17:47:46.287Z,100851.00
2023-03-14T17:50:13.449Z,100863.28
2023-03-14T17:52:39.924Z,100864.25
2023-03-14T17:55:07.773Z,100867.63
2023-03-14T17:57:37.851Z,100868.91
2023-03-14T18:00:09.026Z,100873.50
2023-03-14T18:02:35.789Z,100876.88
2023-03-14T18:05:02.431Z,100874.66
2023-03-14T18:07:28.848Z,100878.88
2023-03-14T18:09:55.238Z,100887.47
2023-03-14T18:12:22.795Z,100891.91
2023-03-14T18:14:49.155Z,100914.16
2023-03-14T18:17:15.550Z,100914.63
2023-03-14T18:19:42.370Z,100915.69
2023-03-14T18:22:09.009Z,100926.91
2023-03-14T18:24:35.381Z,100925.72
2023-03-14T18:27:01.758Z,100930.53
2023-03-14T18:29:28.110Z,100940.13
2023-03-14T18:31:56.746Z,100936.25
2023-03-14T18:34:23.224Z,100947.00
2023-03-14T18:36:49.755Z,100953.31
2023-03-14T18:39:16.289Z,100953.19
2023-03-14T18:41:42.810Z,100956.94
2023-03-14T18:44:09.983Z,100958.44
2023-03-14T18:46:36.400Z,100960.56
2023-03-14T18:49:05.464Z,100959.38
2023-03-14T18:51:33.162Z,100966.25
2023-03-14T18:54:09.518Z,100974.19
2023-03-14T18:56:37.683Z,100977.94
2023-03-14T18:59:04.039Z,100970.91
2023-03-14T19:01:31.440Z,100976.75
2023-03-14T19:03:59.349Z,100972.75
2023-03-14T19:06:27.827Z,100968.66
2023-03-14T19:08:54.312Z,100979.03
2023-03-14T19:11:20.664Z,100974.97
2023-03-14T19:13:47.144Z,100982.06
2023-03-14T19:16:14.948Z,100978.78
2023-03-14T19:18:42.102Z,100977.59
2023-03-14T19:21:11.338Z,100978.28
2023-03-14T19:23:39.694Z,100979.78
2023-03-14T19:26:06.397Z,100978.84
2023-03-14T19:28:33.126Z,100983.00
2023-03-14T19:31:02.626Z,100977.94
2023-03-14T19:33:30.071Z,100983.31
2023-03-14T19:35:56.908Z,100984.81
2023-03-14T19:38:23.284Z,100968.09
2023-03-14T19:40:56.640Z,100976.22
2023-03-14T19:43:22.985Z,100976.31
2023-03-14T19:45:49.559Z,100977.38
2023-03-14T19:48:15.915Z,100983.19
2023-03-14T19:50:43.190Z,100979.50
2023-03-14T19:53:10.555Z,100985.97
2023-03-14T19:55:37.541Z,100984.06
2023-03-14T19:58:05.248Z,100989.81
2023-03-14T20:00:31.748Z,100994.72
2023-03-14T20:02:58.165Z,100988.56
2023-03-14T20:05:25.034Z,100992.88
2023-03-14T20:07:51.666Z,101001.16
2023-03-14T20:10:22.578Z,100999.88
2023-03-14T20:12:50.821Z,101016.00
2023-03-14T20:15:19.475Z,101045.44
2023-03-14T20:17:47.396Z,101056.13
2023-03-14T20:20:14.096Z,101063.31
2023-03-14T20:22:41.585Z,101060.16
2023-03-14T20:25:10.919Z,101052.47
2023-03-14T20:27:38.225Z,101050.38
2023-03-14T20:30:11.754Z,101044.81
2023-03-14T20:32:41.950Z,101041.06
2023-03-14T20:35:11.366Z,101038.44
2023-03-14T20:37:38.567Z,101048.38
2023-03-14T20:40:07.278Z,101047.53
2023-03-14T20:42:34.565Z,101047.78
2023-03-14T20:45:00.983Z,101046.94
2023-03-14T20:47:27.786Z,101069.28
2023-03-14T20:49:54.176Z,101070.91
2023-03-14T20:52:20.531Z,101072.16
2023-03-14T20:54:46.873Z,101081.94
2023-03-14T20:57:15.246Z,101067.03
2023-03-14T20:59:41.579Z,101069.72
2023-03-14T21:04:57.113Z,101060.31
2023-03-14T21:07:23.486Z,101064.19
2023-03-14T21:09:49.803Z,101068.13
2023-03-14T21:12:16.106Z,101063.00
2023-03-14T21:14:42.413Z,101059.56
2023-03-14T21:17:08.813Z,101061.41
2023-03-14T21:19:35.127Z,101061.66
2023-03-14T21:22:04.043Z,101056.28
2023-03-14T21:24:31.108Z,101063.72
2023-03-14T21:26:57.741Z,101060.66
2023-03-14T21:29:24.806Z,101060.44
2023-03-14T21:31:51.363Z,101055.16
2023-03-14T21:34:20.932Z,101053.06
2023-03-14T21:36:48.880Z,101057.16
2023-03-14T21:39:15.875Z,101049.72
2023-03-14T21:41:42.342Z,101054.25
2023-03-14T21:44:08.677Z,101051.34
2023-03-14T21:46:36.682Z,101058.38
2023-03-14T21:49:03.864Z,101056.28
2023-03-14T21:51:31.112Z,101058.38
2023-03-14T21:53:57.497Z,101057.03
2023-03-14T21:56:26.767Z,101040.03
2023-03-14T21:58:59.020Z,101030.47
2023-03-14T22:01:25.422Z,101032.13
2023-03-14T22:03:51.807Z,101038.53
2023-03-14T22:06:18.116Z,101042.41
2023-03-14T22:08:44.446Z,101039.50
2023-03-14T22:11:10.760Z,101061.22
2023-03-14T22:13:37.749Z,101065.09
2023-03-14T22:16:04.485Z,101065.47
2023-03-14T22:18:31.312Z,101066.06
2023-03-14T22:20:57.695Z,101067.47
2023-03-14T22:23:24.100Z,101100.91
2023-03-14T22:25:50.545Z,101110.78
2023-03-14T22:28:18.711Z,101136.72
2023-03-14T22:30:49.472Z,101133.81
2023-03-14T22:33:16.660Z,101136.13
2023-03-14T22:35:47.399Z,101153.28
2023-03-14T22:38:13.731Z,101158.66
2023-03-14T22:40:40.191Z,101162.03
2023-03-14T22:43:06.546Z,101170.06
2023-03-14T22:45:32.993Z,101173.31
2023-03-14T22:47:59.364Z,101172.44
2023-03-14T22:50:25.857Z,101174.00
2023-03-14T22:52:52.674Z,101171.41
2023-03-14T22:55:19.030Z,101180.59
2023-03-14T22:57:45.619Z,101188.50
2023-03-14T23:00:13.733Z,101199.28
2023-03-14T23:02:40.574Z,101199.28
2023-03-14T23:05:07.265Z,101192.94
2023-03-14T23:07:33.596Z,101194.81
2023-03-14T23:10:00.040Z,101196.06
2023-03-14T23:12:26.373Z,101206.78
2023-03-14T23:14:53.860Z,101201.84
2023-03-14T23:17:20.188Z,101199.81
2023-03-14T23:19:49.399Z,101196.09
2023-03-14T23:22:15.782Z,101190.75
2023-03-14T23:24:42.115Z,101185.78
2023-03-14T23:27:08.480Z,101194.44
2023-03-14T23:29:34.785Z,101196.09
2023-03-14T23:32:01.100Z,101210.13
2023-03-14T23:34:27.473Z,101205.78
2023-03-14T23:36:53.949Z,101213.03
2023-03-14T23:39:20.274Z,101225.38
2023-03-14T23:41:46.602Z,101216.94
2023-03-14T23:44:13.370Z,101216.78
2023-03-14T23:46:39.777Z,101215.13
2023-03-14T23:49:06.231Z,101220.91
2023-03-14T23:51:32.553Z,101224.63
2023-03-14T23:53:58.876Z,101223.81
2023-03-14T23:56:25.211Z,101222.97
2023-03-14T23:58:51.554Z,101213.09
